WEST,Max TemperatureF,Mean TemperatureF,Min TemperatureF,Max Dew PointF,MeanDew PointF,Min DewpointF,Max Humidity, Mean Humidity, Min Humidity, Max Sea Level PressureIn, Mean Sea Level PressureIn, Min Sea Level PressureIn, Max VisibilityMiles, Mean VisibilityMiles, Min VisibilityMiles, Max Wind SpeedMPH, Mean Wind SpeedMPH, Max Gust SpeedMPH,PrecipitationIn, CloudCover, Events, WindDirDegrees
2014-3-1,72,61,50,54,47,37,94,62,19,30.35,30.23,30.14,6,6,6,10,7,,0.00,3,,20
2014-3-2,74,60,46,55,52,46,94,72,33,30.23,30.16,30.05,6,6,5,12,5,,0.00,2,,18
2014-3-3,70,64,57,56,52,46,94,73,37,30.18,30.13,30.06,6,6,6,13,7,,0.00,4,,47
2014-3-4,70,60,49,52,49,44,94,65,30,30.19,30.12,30.05,6,5,4,14,10,,0.00,4,,51
2014-3-5,75,60,46,54,46,37,93,61,22,30.15,30.06,29.96,6,6,6,10,7,,0.00,,,63
2014-3-6,84,65,46,52,44,37,94,53,12,30.04,29.97,29.83,6,6,6,9,5,,0.00,1,,69
2014-3-7,90,68,45,48,41,32,71,37,7,30.01,29.95,29.82,6,6,4,12,5,,0.00,2,,83
2014-3-8,86,72,59,50,36,30,48,28,7,30.04,29.97,29.87,6,6,5,17,6,,0.00,5,,163
2014-3-9,81,72,62,52,42,34,68,35,17,30.04,29.93,29.77,6,5,2,31,12,40,0.00,3,,194
2014-3-10,66,60,53,55,53,50,100,78,51,29.92,29.87,29.80,5,5,5,16,6,,0.04,5,Rain-Thunderstorm,288
2014-3-11,59,55,51,54,51,48,100,87,66,29.98,29.90,29.85,6,5,3,12,6,,0.24,4,Rain-Thunderstorm,178
2014-3-12,68,60,51,55,52,50,100,79,44,30.06,29.98,29.91,6,6,4,14,5,,0.12,5,Rain-Thunderstorm,33
2014-3-13,68,60,53,55,51,44,100,75,34,30.15,30.08,30.01,6,5,1,13,4,,0.00,5,,360
2014-3-14,68,57,46,50,46,41,100,68,31,30.21,30.15,30.09,6,5,4,13,4,,0.00,3,,6
2014-3-15,73,60,48,46,42,36,87,42,19,30.21,30.17,30.10,6,6,5,8,6,,0.00,1,,56
2014-3-16,79,62,45,46,41,32,87,46,10,30.18,30.14,30.05,6,5,4,13,5,,0.00,,,63
2014-3-17,82,66,51,45,40,34,76,35,10,30.18,30.12,30.01,6,6,5,10,5,,0.00,5,,350
2014-3-18,78,69,60,50,44,36,63,40,14,30.21,30.14,30.06,6,6,5,23,11,36,0.00,5,Rain,124
2014-3-19,80,66,51,55,43,32,88,46,11,30.15,30.10,29.99,6,6,4,12,7,,0.00,1,,259
2014-3-20,76,64,51,54,53,45,100,90,58,30.18,30.13,30.06,6,3,0,9,6,,0.02,5,Fog-Rain,273
2014-3-21,72,59,46,50,46,42,100,64,28,30.18,30.13,30.03,6,6,5,10,6,,0.00,3,,51
2014-3-22,73,60,46,51,46,36,94,63,20,30.15,30.10,30.01,6,6,6,13,5,,0.00,3,,25
2014-3-23,75,62,48,52,49,45,94,64,24,30.12,30.07,29.97,6,6,6,12,6,,0.00,1,,50
2014-3-24,79,64,49,54,46,30,94,56,10,30.27,30.16,30.09,7,6,5,14,5,,0.00,,,6
2014-3-25,83,67,51,48,37,18,72,40,4,30.30,30.24,30.12,6,6,5,17,9,,0.00,1,,60
2014-3-26,80,64,48,45,41,34,82,51,19,30.27,30.18,30.06,6,6,4,12,7,23,0.00,3,,50
2014-3-27,70,58,46,45,41,39,82,54,24,30.18,29.95,29.81,6,6,4,15,8,,0.00,2,,323
2014-3-28,54,50,46,46,46,45,100,85,72,29.86,29.69,29.59,6,5,4,13,8,,0.24,4,Rain,204
2014-3-29,59,52,46,50,48,46,100,86,60,30.04,29.81,29.59,6,5,1,22,11,33,0.24,3,Rain,259
2014-3-30,67,54,42,52,47,43,100,73,40,30.05,30.01,29.94,6,6,5,9,4,,0.00,2,,252
2014-3-31,70,56,43,54,49,45,100,72,34,30.04,29.97,29.88,6,6,5,14,4,,0.00,3,,259